Pagrindinis puslapis
METAR-TAF:

METAR-TAF

Oro uostai :

Kobicha, Bolivija

platuma: 11-02S, ilguma: 068-47W, Aukštis: 235 m

Dabartinis oras

Ataskaita buvo paskelbta 1 valandą ir 5 minutes, ne 15:00 UTC
Vėjas 3 kt iš Vakarų/Šiaurės Vakarų
Temperatūra 32°C
Drėgmė 63%
Slėgis 1015 hPa
Matomumas 10 km arba daugiau
Mažai debesys ne aukštis 2300 ft

METAR: SLCO 251500Z 30003KT 9999 FEW023 32/24 Q1015

Laikas: 12:05 (16:05 UTC)

Prognozė

Ataskaita buvo paskelbta 6 valandos ir 5 minutes, ne 10:00 UTC
Prognozė galioja nuo 25 metu 12 UTC su 26 metu 12 UTC
Vėjas kt iš Šiaurės
Matomumas 10 km arba daugiau
Mažai debesys ne aukštis 2000 ft
Tapsmas
nuo 25 metu 13 UTC su 25 metu 15 UTC
Vėjas 10 kt iš Šiaurės/Šiaurės Vakarų
Tapsmas
nuo 25 metu 23 UTC su 26 metu 01 UTC
Vėjas kt iš Šiaurės

TAF: SLCO 251000Z 2512/2612 00000KT 9999 FEW020 TX36/2519Z TN22/2611Z BECMG 2513/2515 33010KT BECMG 2523/2601 00000KT

Orai ataskaitas ir orų prognozės (METAR, TAF).

turimą stotys yra geltonos ir raudonos taškus žemėlapyje.

Perkelti pele per norėdami pamatyti stoties vardą.

Tada spustelėkite, norėdami matyti oro stebėjimo ir prognozės.

Norėdami pakeisti žemėlapį: spustelėkite ant žalios mygtukų su juodo kryžiaus žemyn,; žalią mygtuką su brūkšneliu, jei norite nutolinti; arba žalių rodyklių gretimoms žemėlapius.


METAR-TAF: